Relevés horaires Bouveret (Suisse)


Relevés horaires à Bouveret - Mardi 21 Août 2018
Heure UTC1 Température [°C] Vent [km/h] Hum. [%] Pres.4 [hPa] Visi. [Km] Nébu. [octa] Préc.5 [mm] Cond.
2m. Res. Ros. Dir.2 Vit. Moy. Raf.3
19:00 24.6 24.6 13.7 SSE 25.9 -- -- 51 1015.8 -- -- -- --
18:00 26.1 26.1 13.6 SSE 27.8 -- 38.9 46 1015.2(-0.1/3h) -- -- -- --
17:00 27.3 27.3 13.5 SE 16.7 -- -- 43 1014.9 -- -- -- --
16:00 29.1 29.1 14.4 SSE 24.1 -- -- 41 1014.5 -- -- -- --
15:00 25.9 25.9 18.1 NE 3.7 -- 9.3 62 1015.3(-1.5/3h) -- -- -- --
14:00 24.8 24.8 17.4 N 5.6 -- -- 63 1015.9 -- -- -- --
13:00 24.4 24.4 17.7 NNO 5.6 -- -- 66 1016.5 -- -- -- --
12:00 24.0 24.0 16.9 NNO 7.4 -- 13.0 65 1017.2(-1.2/3h) -- -- -- --
11:00 23.4 23.4 16.6 NNO 9.3 -- -- 66 1017.9 -- -- -- --
10:00 23.1 23.1 16.4 NO 9.3 -- -- 66 1018.4 -- -- -- --
09:00 22.5 22.5 15.6 NO 7.4 -- 11.1 65 1018.7(0.6/3h) -- -- -- --
08:00 22.3 22.3 15.0 NO 5.6 -- -- 63 1018.7 -- -- -- --
07:00 21.8 21.8 15.9 N 5.6 -- -- 69 1018.6 -- -- -- --
06:00 21.5 21.5 15.4 OSO 5.6 -- 13.0 68 1018.2(0.6/3h) -- -- -- --
05:00 19.5 19.5 14.1 SE 3.7 -- -- 71 1018 -- -- -- --
04:00 18.9 18.9 14.7 SSE 5.6 -- -- 77 1017.9 -- -- -- --
03:00 19.5 19.5 14.0 SE 5.6 -- 13.0 71 1017.9(-0.5/3h) -- -- -- --
02:00 20.3 20.3 14.5 SSE 5.6 -- -- 69 1018.1 -- -- -- --
01:00 20.3 20.3 14.5 SSE 7.4 -- -- 69 1018.2 -- -- -- --
00:00 22.2 22.2 14.1 SSE 7.4 -- 29.6 60 1018(0.4/3h) -- -- -- --

1 Coordinated Universal Time. Actuellement il est 22:00 locale et 20:00 UTC.

2 Le vent souffle depuis la direction indiquée vers la direction oposée.

3 Les rafales max. sont disponible 40 min après l'heure du relevé.

4 Pour les stations d'altitude (plus de 600m) le géopotentiel du niveau le plus proche de la pression obligatoire est indiqué.

5 Les stations disposant d'un diffuseur peuvent indiquer "trace". Cela signifie que des précipitations ont touchés le sol mais que la quantité est inférieure à 0.1 mm.

Récapitulatif de la journée
Température [°C] Vent [km/h] Ensoleillement4 [h] Precipitations totale5 [mm] Pression [Hpa]
Min1 Max.2 Moy.3 Max. Min Max.
18.7 29.1 0 38.9 0 h 0 min 0 1014.5 1018.7

1 Température minimale relevée entre 18:00 UTC la veille et 18:00 UTC le jour donné.

2 Température maximale relevée entre 06:00 UTC le jour donné et 06:00 UTC le lendemain.

3 Vent moyen de la journée basé sur les relevés horaires.

4 Ensoleillement en heures relevé entre 06:00 UTC la veille et 06:00 UTC le jour donné.

5 Précipitations totales tombées entre 06:00 UTC la jour donné et 06:00 UTC le lendemain.

Graphiques horaires